Time;durP1;ratioP1;P1;durP2;ratioP2;P2;SDS_P1;SDS_P2;PMS_P1;PMS_P2;Temp;Humidity;BMP_temperature;BMP_pressure;BME280_temperature;BME280_humidity;BME280_pressure;Samples;Min_cycle;Max_cycle;Signal;HPM_P1;HPM_P2
2024/02/05 00:01:18;;;;;;;;;;;256.40;2252.80;;;;;;5105149;28;19904;-83
2024/02/05 00:03:45;;;;;;;;;;;256.20;2252.80;;;;;;5104303;28;20003;-82
2024/02/05 00:06:12;;;;;;;;;;;256.40;2252.80;;;;;;5108440;28;19935;-83
2024/02/05 00:08:37;;;;;;;;;;;256.40;2252.80;;;;;;5105670;28;19916;-81
2024/02/05 00:11:05;;;;;;;;;;;256.50;2252.80;;;;;;5097673;28;19908;-80
2024/02/05 00:13:30;;;;;;;;;;;256.70;2252.80;;;;;;5101802;28;19922;-84
2024/02/05 00:15:56;;;;;;;;;;;256.60;2252.80;;;;;;5090614;28;19915;-83
2024/02/05 00:18:22;;;;;;;;;;;256.60;2252.80;;;;;;5098139;28;19911;-83
2024/02/05 00:20:47;;;;;;;;;;;256.60;2252.80;;;;;;5103971;28;20326;-84
2024/02/05 00:23:13;;;;;;;;;;;256.60;2252.80;;;;;;5105207;28;19915;-83
2024/02/05 00:25:39;;;;;;;;;;;256.40;2252.80;;;;;;5103078;28;19918;-82
2024/02/05 00:28:04;;;;;;;;;;;256.60;2252.80;;;;;;5109577;28;19908;-83
2024/02/05 00:30:30;;;;;;;;;;;256.50;2252.80;;;;;;5105737;28;19990;-83
2024/02/05 00:32:55;;;;;;;;;;;256.70;2252.80;;;;;;5110042;28;20375;-83
2024/02/05 00:35:21;;;;;;;;;;;256.90;2252.80;;;;;;5105266;28;19904;-82
2024/02/05 00:37:47;;;;;;;;;;;256.60;2252.80;;;;;;5096662;28;19904;-83
2024/02/05 00:40:12;;;;;;;;;;;256.60;2252.80;;;;;;5113116;28;19908;-81
2024/02/05 00:42:38;;;;;;;;;;;256.80;2252.80;;;;;;5102568;28;19986;-83
2024/02/05 00:45:05;;;;;;;;;;;281.70;2278.40;;;;;;5099855;28;20387;-84
2024/02/05 00:47:35;;;;;;;;;;;281.70;2278.40;;;;;;5109545;28;19907;-82
2024/02/05 00:50:01;;;;;;;;;;;281.70;2278.40;;;;;;5113301;28;19907;-82
2024/02/05 00:52:28;;;;;;;;;;;281.70;2278.40;;;;;;5100403;28;19933;-82
2024/02/05 00:54:54;;;;;;;;;;;281.80;2278.40;;;;;;5105501;28;20406;-83
2024/02/05 00:57:19;;;;;;;;;;;281.90;2278.40;;;;;;5109064;28;19916;-82
2024/02/05 00:59:45;;;;;;;;;;;282.10;2278.40;;;;;;5107577;28;19995;-82
2024/02/05 01:02:12;;;;;;;;;;;282.10;2278.40;;;;;;5103911;28;19907;-82
2024/02/05 01:04:37;;;;;;;;;;;282.00;2278.40;;;;;;5103951;28;20352;-81
2024/02/05 01:07:03;;;;;;;;;;;282.20;2278.40;;;;;;5127182;28;19956;-82
2024/02/05 01:09:29;;;;;;;;;;;282.30;2278.40;;;;;;5100961;28;19961;-83
2024/02/05 01:11:55;;;;;;;;;;;282.30;2278.40;;;;;;5109267;28;19908;-81
2024/02/05 01:14:20;;;;;;;;;;;282.40;2278.40;;;;;;5102609;28;20010;-81
2024/02/05 01:16:46;;;;;;;;;;;282.50;2278.40;;;;;;5104179;28;20315;-82
2024/02/05 01:19:12;;;;;;;;;;;282.30;2278.40;;;;;;5104444;28;19912;-83
2024/02/05 01:21:38;;;;;;;;;;;282.10;2278.40;;;;;;5099823;28;19915;-83
2024/02/05 01:24:03;;;;;;;;;;;281.90;2278.40;;;;;;5102042;28;19915;-82
2024/02/05 01:26:30;;;;;;;;;;;281.90;2278.40;;;;;;5098684;28;20273;-81
2024/02/05 01:28:55;;;;;;;;;;;281.90;2278.40;;;;;;5106449;28;19904;-82
2024/02/05 01:31:21;;;;;;;;;;;282.00;2278.40;;;;;;5113396;28;19911;-82
2024/02/05 01:33:47;;;;;;;;;;;282.20;2278.40;;;;;;5109783;28;19912;-82
2024/02/05 01:36:12;;;;;;;;;;;282.10;2278.40;;;;;;5099430;28;19908;-83
2024/02/05 01:38:38;;;;;;;;;;;282.00;2278.40;;;;;;5111424;28;19926;-82
2024/02/05 01:41:04;;;;;;;;;;;281.80;2278.40;;;;;;5112889;28;19911;-82
2024/02/05 01:43:30;;;;;;;;;;;281.60;2278.40;;;;;;5114164;28;19903;-81
2024/02/05 01:45:56;;;;;;;;;;;256.90;2252.80;;;;;;5113118;28;19908;-82
2024/02/05 01:48:24;;;;;;;;;;;281.70;2278.40;;;;;;5112770;28;19910;-82
2024/02/05 01:50:51;;;;;;;;;;;281.90;2278.40;;;;;;5113208;28;19998;-83
2024/02/05 01:53:17;;;;;;;;;;;282.00;2278.40;;;;;;5109458;28;19916;-83
2024/02/05 01:55:45;;;;;;;;;;;282.00;2278.40;;;;;;5112331;28;19912;-82
2024/02/05 01:58:11;;;;;;;;;;;282.20;2278.40;;;;;;5116953;28;19904;-82
2024/02/05 02:00:37;;;;;;;;;;;282.50;2278.40;;;;;;5117704;28;19965;-82
2024/02/05 02:03:02;;;;;;;;;;;282.20;2278.40;;;;;;5106881;28;19999;-82
2024/02/05 02:05:28;;;;;;;;;;;282.30;2278.40;;;;;;5112630;28;20008;-83
2024/02/05 02:07:54;;;;;;;;;;;282.40;2278.40;;;;;;5133853;27;19903;-83
2024/02/05 02:10:19;;;;;;;;;;;282.30;2278.40;;;;;;5115938;28;20257;-82
2024/02/05 02:12:45;;;;;;;;;;;282.40;2278.40;;;;;;5105962;28;19908;-82
2024/02/05 02:15:12;;;;;;;;;;;282.50;2278.40;;;;;;5112125;28;20367;-82
2024/02/05 02:20:51;;;;;;;;;;;282.10;2278.40;;;;;;2478567;22;19915;-80
2024/02/05 02:23:19;;;;;;;;;;;282.00;2278.40;;;;;;4973846;28;19929;-83
2024/02/05 02:25:47;;;;;;;;;;;282.10;2278.40;;;;;;4959503;28;19910;-81
2024/02/05 02:28:13;;;;;;;;;;;282.10;2278.40;;;;;;4968609;28;20382;-81
2024/02/05 02:30:38;;;;;;;;;;;282.00;2278.40;;;;;;4986252;28;19909;-81
2024/02/05 02:33:04;;;;;;;;;;;281.90;2278.40;;;;;;4980779;28;19953;-82
2024/02/05 02:35:44;;;;;;;;;;;281.80;2278.40;;;;;;4986688;28;20283;-81
2024/02/05 02:38:13;;;;;;;;;;;281.70;2278.40;;;;;;4962797;28;19944;-82
2024/02/05 02:40:40;;;;;;;;;;;256.90;2252.80;;;;;;4984421;28;20008;-83
2024/02/05 02:43:07;;;;;;;;;;;256.90;2252.80;;;;;;4981156;28;20014;-82
2024/02/05 02:45:32;;;;;;;;;;;256.90;2252.80;;;;;;4976721;28;19929;-81
2024/02/05 02:47:58;;;;;;;;;;;281.60;2278.40;;;;;;4959392;28;19909;-83
2024/02/05 02:50:24;;;;;;;;;;;281.70;2278.40;;;;;;4986490;28;19909;-82
2024/02/05 02:52:49;;;;;;;;;;;281.60;2278.40;;;;;;4999789;28;20371;-82
2024/02/05 02:55:17;;;;;;;;;;;281.60;2278.40;;;;;;4978940;28;19989;-82
2024/02/05 02:57:42;;;;;;;;;;;281.80;2278.40;;;;;;4978654;28;19945;-81
2024/02/05 03:00:12;;;;;;;;;;;281.90;2278.40;;;;;;4995934;28;19959;-83
2024/02/05 03:02:38;;;;;;;;;;;281.80;2278.40;;;;;;4987926;28;19905;-82
2024/02/05 03:05:04;;;;;;;;;;;281.80;2278.40;;;;;;4998802;28;19906;-83
2024/02/05 03:07:34;;;;;;;;;;;281.80;2278.40;;;;;;4978334;28;19921;-82
2024/02/05 03:10:05;;;;;;;;;;;281.80;2278.40;;;;;;4994465;28;19953;-82
2024/02/05 03:12:31;;;;;;;;;;;281.70;2278.40;;;;;;4978138;28;19912;-82
2024/02/05 03:14:57;;;;;;;;;;;281.80;2278.40;;;;;;4995061;28;19916;-82
2024/02/05 03:17:23;;;;;;;;;;;281.60;2278.40;;;;;;4997535;28;19909;-82
2024/02/05 03:19:48;;;;;;;;;;;281.70;2278.40;;;;;;5009381;28;20292;-82
2024/02/05 03:22:14;;;;;;;;;;;281.80;2278.40;;;;;;4977314;28;19917;-81
2024/02/05 03:24:39;;;;;;;;;;;281.80;2278.40;;;;;;4994454;28;19914;-82
2024/02/05 03:27:05;;;;;;;;;;;281.70;2278.40;;;;;;4978182;28;19916;-82
2024/02/05 03:29:31;;;;;;;;;;;281.60;2278.40;;;;;;4994479;28;19909;-81
2024/02/05 03:31:56;;;;;;;;;;;281.70;2278.40;;;;;;4993937;28;19945;-82
2024/02/05 03:34:22;;;;;;;;;;;281.80;2278.40;;;;;;4978227;28;19996;-82
2024/02/05 03:36:48;;;;;;;;;;;281.90;2278.40;;;;;;4978055;28;20360;-82
2024/02/05 03:39:14;;;;;;;;;;;282.00;2278.40;;;;;;4993851;28;19932;-82
2024/02/05 03:41:40;;;;;;;;;;;282.10;2278.40;;;;;;4986747;28;19906;-82
2024/02/05 03:44:05;;;;;;;;;;;282.10;2278.40;;;;;;4997846;28;19949;-82
2024/02/05 03:46:31;;;;;;;;;;;282.00;2278.40;;;;;;4977864;28;19913;-82
2024/02/05 03:48:56;;;;;;;;;;;282.00;2278.40;;;;;;4993068;28;20375;-82
2024/02/05 03:51:22;;;;;;;;;;;281.90;2278.40;;;;;;4977714;28;19912;-82
2024/02/05 03:53:48;;;;;;;;;;;281.90;2278.40;;;;;;4993671;28;19922;-80
2024/02/05 03:56:15;;;;;;;;;;;281.80;2278.40;;;;;;4977347;28;19993;-81
2024/02/05 03:58:41;;;;;;;;;;;281.80;2278.40;;;;;;4993444;28;20014;-80
2024/02/05 04:01:06;;;;;;;;;;;281.80;2278.40;;;;;;4977303;28;19926;-80
2024/02/05 04:03:32;;;;;;;;;;;281.70;2278.40;;;;;;5007198;28;19951;-81
2024/02/05 04:05:57;;;;;;;;;;;281.80;2278.40;;;;;;4976908;28;19917;-81
2024/02/05 04:08:26;;;;;;;;;;;281.90;2278.40;;;;;;4993554;28;20327;-80
2024/02/05 04:10:52;;;;;;;;;;;282.00;2278.40;;;;;;4977101;28;19905;-80
2024/02/05 04:13:17;;;;;;;;;;;282.00;2278.40;;;;;;4993018;28;20335;-80
2024/02/05 04:15:43;;;;;;;;;;;282.00;2278.40;;;;;;4976646;28;20453;-80
2024/02/05 04:18:10;;;;;;;;;;;281.90;2278.40;;;;;;4993308;28;19909;-80
2024/02/05 04:20:35;;;;;;;;;;;281.90;2278.40;;;;;;4976774;28;20046;-80
2024/02/05 04:23:01;;;;;;;;;;;281.70;2278.40;;;;;;4981725;28;19921;-80
2024/02/05 04:25:26;;;;;;;;;;;281.70;2278.40;;;;;;4994088;28;19912;-80
2024/02/05 04:27:53;;;;;;;;;;;281.60;2278.40;;;;;;4977329;28;19909;-81
2024/02/05 04:30:26;;;;;;;;;;;281.60;2278.40;;;;;;5003640;28;19953;-81
2024/02/05 04:32:52;;;;;;;;;;;281.60;2278.40;;;;;;4989530;28;19910;-80
2024/02/05 04:35:18;;;;;;;;;;;281.60;2278.40;;;;;;4992898;28;19917;-81
2024/02/05 04:37:43;;;;;;;;;;;281.60;2278.40;;;;;;4992035;28;19913;-80
2024/02/05 04:40:09;;;;;;;;;;;256.80;2252.80;;;;;;4992733;28;19910;-80
2024/02/05 04:42:35;;;;;;;;;;;256.80;2252.80;;;;;;4992193;28;19910;-81
2024/02/05 04:45:01;;;;;;;;;;;256.90;2252.80;;;;;;4993745;28;20363;-80
2024/02/05 04:47:27;;;;;;;;;;;256.90;2252.80;;;;;;4976452;28;19992;-80
2024/02/05 04:49:52;;;;;;;;;;;256.90;2252.80;;;;;;4993157;28;19905;-80
2024/02/05 04:52:18;;;;;;;;;;;256.90;2252.80;;;;;;4979891;28;19909;-81
2024/02/05 04:54:44;;;;;;;;;;;281.60;2278.40;;;;;;5002022;28;19918;-80
2024/02/05 04:57:09;;;;;;;;;;;256.90;2252.80;;;;;;4976412;28;19913;-81
2024/02/05 04:59:35;;;;;;;;;;;281.60;2278.40;;;;;;4992385;28;20283;-80
2024/02/05 05:02:01;;;;;;;;;;;256.90;2252.80;;;;;;4992431;28;20008;-81
2024/02/05 05:04:27;;;;;;;;;;;256.80;2252.80;;;;;;4992624;28;20390;-80
2024/02/05 05:06:52;;;;;;;;;;;256.90;2252.80;;;;;;4992314;28;19906;-80
2024/02/05 05:09:18;;;;;;;;;;;256.90;2252.80;;;;;;4989396;28;19917;-80
2024/02/05 05:11:43;;;;;;;;;;;256.90;2252.80;;;;;;4988969;28;20438;-80
2024/02/05 05:14:09;;;;;;;;;;;281.60;2278.40;;;;;;4976673;28;20008;-81
2024/02/05 05:16:35;;;;;;;;;;;256.80;2252.80;;;;;;4992240;28;20025;-80
2024/02/05 05:19:03;;;;;;;;;;;256.80;2252.80;;;;;;4978669;28;19924;-80
2024/02/05 05:21:30;;;;;;;;;;;281.60;2278.40;;;;;;4990310;28;19917;-80
2024/02/05 05:23:56;;;;;;;;;;;281.70;2278.40;;;;;;4979513;28;20375;-80
2024/02/05 05:26:23;;;;;;;;;;;281.80;2278.40;;;;;;4997497;28;19912;-80
2024/02/05 05:28:52;;;;;;;;;;;281.80;2278.40;;;;;;4979914;28;19944;-81
2024/02/05 05:31:17;;;;;;;;;;;282.00;2278.40;;;;;;4996096;28;19992;-80
2024/02/05 05:33:44;;;;;;;;;;;282.00;2278.40;;;;;;4980494;28;20427;-80
2024/02/05 05:36:10;;;;;;;;;;;282.00;2278.40;;;;;;4987747;28;20418;-80
2024/02/05 05:38:36;;;;;;;;;;;282.00;2278.40;;;;;;4990061;28;19910;-80
2024/02/05 05:41:03;;;;;;;;;;;282.00;2278.40;;;;;;4984336;28;19906;-80
2024/02/05 05:43:29;;;;;;;;;;;282.00;2278.40;;;;;;4983617;28;19906;-80
2024/02/05 05:45:55;;;;;;;;;;;282.00;2278.40;;;;;;4980477;28;19906;-80
2024/02/05 05:48:20;;;;;;;;;;;282.00;2278.40;;;;;;4979877;28;19917;-80
2024/02/05 05:50:47;;;;;;;;;;;281.90;2278.40;;;;;;4991577;28;19910;-80
2024/02/05 05:53:12;;;;;;;;;;;281.90;2278.40;;;;;;4988615;28;19928;-81
2024/02/05 05:55:38;;;;;;;;;;;281.90;2278.40;;;;;;4997410;28;19992;-81
2024/02/05 05:58:03;;;;;;;;;;;281.80;2278.40;;;;;;4981896;28;20008;-80
2024/02/05 06:00:29;;;;;;;;;;;281.90;2278.40;;;;;;4985542;28;20359;-80
2024/02/05 06:02:56;;;;;;;;;;;281.90;2278.40;;;;;;4983275;28;19910;-80
2024/02/05 06:05:22;;;;;;;;;;;281.80;2278.40;;;;;;4995989;28;19944;-83
2024/02/05 06:07:48;;;;;;;;;;;281.90;2278.40;;;;;;4979583;28;19944;-82
2024/02/05 06:10:13;;;;;;;;;;;281.90;2278.40;;;;;;4998523;28;20271;-84
2024/02/05 06:12:44;;;;;;;;;;;281.80;2278.40;;;;;;4995127;28;19956;-83
2024/02/05 06:15:09;;;;;;;;;;;281.80;2278.40;;;;;;4971493;28;19920;-82
2024/02/05 06:17:35;;;;;;;;;;;281.70;2278.40;;;;;;4981098;28;19910;-83
2024/02/05 06:20:01;;;;;;;;;;;281.60;2278.40;;;;;;4999768;28;19910;-85
2024/02/05 06:22:27;;;;;;;;;;;256.90;2252.80;;;;;;4979595;28;20309;-82
2024/02/05 06:24:52;;;;;;;;;;;281.90;2278.40;;;;;;5001326;28;19921;-82
2024/02/05 06:27:18;;;;;;;;;;;281.90;2278.40;;;;;;4988304;28;20263;-83
2024/02/05 06:29:43;;;;;;;;;;;282.00;2278.40;;;;;;4980482;28;19913;-82
2024/02/05 06:32:09;;;;;;;;;;;282.00;2278.40;;;;;;4983631;28;19913;-84
2024/02/05 06:34:34;;;;;;;;;;;282.00;2278.40;;;;;;4987742;28;19918;-82
2024/02/05 06:37:00;;;;;;;;;;;282.00;2278.40;;;;;;4987112;28;20012;-83
2024/02/05 06:39:26;;;;;;;;;;;282.10;2278.40;;;;;;4979326;28;20363;-84
2024/02/05 06:41:53;;;;;;;;;;;282.20;2278.40;;;;;;4994821;28;19905;-82
2024/02/05 06:44:19;;;;;;;;;;;282.20;2278.40;;;;;;4998600;28;19914;-85
2024/02/05 06:46:45;;;;;;;;;;;282.20;2278.40;;;;;;4988160;28;19909;-86
2024/02/05 06:49:10;;;;;;;;;;;282.30;2278.40;;;;;;4996489;28;19917;-83
2024/02/05 06:51:36;;;;;;;;;;;282.30;2278.40;;;;;;4980672;28;20386;-84
2024/02/05 06:54:01;;;;;;;;;;;282.40;2278.40;;;;;;4978915;28;19918;-82
2024/02/05 06:56:27;;;;;;;;;;;282.50;2278.40;;;;;;4991341;28;19909;-84
2024/02/05 06:58:53;;;;;;;;;;;307.20;2304.00;;;;;;4997609;28;19996;-83
2024/02/05 07:01:19;;;;;;;;;;;282.50;2278.40;;;;;;4978654;28;20336;-85
2024/02/05 07:03:44;;;;;;;;;;;282.50;2278.40;;;;;;4971074;28;19909;-85
2024/02/05 07:06:10;;;;;;;;;;;282.50;2278.40;;;;;;4979181;28;20359;-86
2024/02/05 07:08:36;;;;;;;;;;;282.50;2278.40;;;;;;4978466;28;19913;-81
2024/02/05 07:11:03;;;;;;;;;;;307.20;2304.00;;;;;;4978200;28;19969;-80
2024/02/05 07:13:28;;;;;;;;;;;307.30;2304.00;;;;;;4995995;28;19968;-82
2024/02/05 07:15:55;;;;;;;;;;;307.30;2304.00;;;;;;4987058;28;19917;-80
2024/02/05 07:18:20;;;;;;;;;;;307.20;2304.00;;;;;;4994062;28;19910;-80
2024/02/05 07:20:46;;;;;;;;;;;307.30;2304.00;;;;;;4978563;28;19916;-81
2024/02/05 07:23:11;;;;;;;;;;;307.30;2304.00;;;;;;4978182;28;19918;-82
2024/02/05 07:25:39;;;;;;;;;;;307.40;2304.00;;;;;;4978543;28;19910;-81
2024/02/05 07:28:05;;;;;;;;;;;307.30;2304.00;;;;;;4992410;28;19906;-80
2024/02/05 07:30:32;;;;;;;;;;;307.40;2304.00;;;;;;4978049;28;20348;-81
2024/02/05 07:32:58;;;;;;;;;;;307.30;2304.00;;;;;;4983593;28;20283;-80
2024/02/05 07:35:23;;;;;;;;;;;307.30;2304.00;;;;;;4978218;28;19940;-78
2024/02/05 07:37:49;;;;;;;;;;;307.40;2304.00;;;;;;4994840;28;19921;-80
2024/02/05 07:40:15;;;;;;;;;;;307.40;2304.00;;;;;;4977886;28;19953;-80
2024/02/05 07:42:40;;;;;;;;;;;307.50;2304.00;;;;;;4986148;28;19910;-80
2024/02/05 07:45:08;;;;;;;;;;;307.30;2304.00;;;;;;4977709;28;19910;-79
2024/02/05 07:47:33;;;;;;;;;;;307.30;2304.00;;;;;;4977617;28;19909;-81
2024/02/05 07:49:59;;;;;;;;;;;307.50;2304.00;;;;;;4981379;28;19909;-85
2024/02/05 07:52:26;;;;;;;;;;;307.60;2304.00;;;;;;4977739;28;19906;-80
2024/02/05 07:54:51;;;;;;;;;;;307.80;2304.00;;;;;;4977893;28;19960;-80
2024/02/05 07:57:18;;;;;;;;;;;307.80;2304.00;;;;;;4981927;28;19948;-83
2024/02/05 07:59:44;;;;;;;;;;;307.80;2304.00;;;;;;4994766;28;19920;-86
2024/02/05 08:02:10;;;;;;;;;;;307.80;2304.00;;;;;;4982642;28;19910;-81
2024/02/05 08:04:35;;;;;;;;;;;307.60;2304.00;;;;;;4990020;28;20384;-91
2024/02/05 08:07:04;;;;;;;;;;;307.70;2304.00;;;;;;4977653;28;19910;-86
2024/02/05 08:09:29;;;;;;;;;;;307.60;2304.00;;;;;;4984009;28;20389;-81
2024/02/05 08:11:55;;;;;;;;;;;307.70;2304.00;;;;;;4986510;28;19913;-81
2024/02/05 08:14:21;;;;;;;;;;;307.60;2304.00;;;;;;4991665;28;19914;-81
2024/02/05 08:16:47;;;;;;;;;;;307.50;2304.00;;;;;;4982511;28;19924;-82
2024/02/05 08:19:12;;;;;;;;;;;307.50;2304.00;;;;;;4977047;28;19910;-80
2024/02/05 08:21:38;;;;;;;;;;;307.60;2304.00;;;;;;4980023;28;19924;-80
2024/02/05 08:24:04;;;;;;;;;;;307.60;2304.00;;;;;;4977546;28;19910;-80
2024/02/05 08:26:31;;;;;;;;;;;307.50;2304.00;;;;;;4998802;28;20282;-80
2024/02/05 08:28:56;;;;;;;;;;;307.60;2304.00;;;;;;4994821;28;19988;-87
2024/02/05 08:31:22;;;;;;;;;;;307.70;2304.00;;;;;;4977165;28;19945;-84
2024/02/05 08:33:48;;;;;;;;;;;307.70;2304.00;;;;;;5000249;28;19929;-82
2024/02/05 08:36:14;;;;;;;;;;;307.80;2304.00;;;;;;4986236;28;19909;-81
2024/02/05 08:38:41;;;;;;;;;;;307.80;2304.00;;;;;;4976801;28;19996;-81
2024/02/05 08:41:07;;;;;;;;;;;307.90;2304.00;;;;;;5000803;28;19953;-82
2024/02/05 08:43:33;;;;;;;;;;;308.10;2304.00;;;;;;4982434;28;19910;-80
2024/02/05 08:45:58;;;;;;;;;;;308.10;2304.00;;;;;;4999453;28;19906;-82
2024/02/05 08:48:25;;;;;;;;;;;332.90;2329.60;;;;;;4975211;28;19917;-83
2024/02/05 08:50:50;;;;;;;;;;;332.90;2329.60;;;;;;4993940;28;19916;-78
2024/02/05 08:53:16;;;;;;;;;;;333.10;2329.60;;;;;;4976647;28;19913;-80
2024/02/05 08:55:42;;;;;;;;;;;333.20;2329.60;;;;;;4993678;28;19941;-80
2024/02/05 08:58:07;;;;;;;;;;;333.30;2329.60;;;;;;4994971;28;19906;-80
2024/02/05 09:00:33;;;;;;;;;;;333.40;2329.60;;;;;;4993383;28;19905;-79
2024/02/05 09:02:58;;;;;;;;;;;333.40;2329.60;;;;;;5000071;28;19916;-78
2024/02/05 09:05:25;;;;;;;;;;;333.50;2329.60;;;;;;4996197;28;19918;-80
2024/02/05 09:07:50;;;;;;;;;;;333.50;2329.60;;;;;;4979810;28;19935;-79
2024/02/05 09:10:16;;;;;;;;;;;333.50;2329.60;;;;;;4997462;28;19914;-79
2024/02/05 09:12:42;;;;;;;;;;;333.60;2329.60;;;;;;4980186;28;19909;-80
2024/02/05 09:15:07;;;;;;;;;;;333.60;2329.60;;;;;;4980107;28;19956;-79
2024/02/05 09:17:33;;;;;;;;;;;333.70;2329.60;;;;;;4991504;28;19955;-81
2024/02/05 09:19:59;;;;;;;;;;;358.50;2329.60;;;;;;4995418;28;19992;-82
2024/02/05 09:22:24;;;;;;;;;;;358.50;2329.60;;;;;;5007975;28;19993;-81
2024/02/05 09:24:50;;;;;;;;;;;358.50;2329.60;;;;;;5008645;28;19917;-82
2024/02/05 09:27:15;;;;;;;;;;;358.60;2329.60;;;;;;5004874;28;20287;-81
2024/02/05 09:29:41;;;;;;;;;;;358.70;2329.60;;;;;;4980001;28;20378;-81
2024/02/05 09:32:08;;;;;;;;;;;358.70;2329.60;;;;;;4997728;28;19909;-81
2024/02/05 09:34:34;;;;;;;;;;;358.70;2329.60;;;;;;4996845;28;19928;-82
2024/02/05 09:37:00;;;;;;;;;;;358.70;2304.00;;;;;;4980068;28;19910;-81
2024/02/05 09:39:26;;;;;;;;;;;358.70;2304.00;;;;;;4997180;28;19949;-81
2024/02/05 09:41:53;;;;;;;;;;;358.80;2304.00;;;;;;4996259;28;19949;-82
2024/02/05 09:44:19;;;;;;;;;;;358.80;2278.40;;;;;;4981543;28;20288;-81
2024/02/05 09:46:51;;;;;;;;;;;358.80;2278.40;;;;;;4972675;28;19910;-85
2024/02/05 09:49:20;;;;;;;;;;;358.80;2278.40;;;;;;4980289;28;20048;-83
2024/02/05 09:51:47;;;;;;;;;;;358.80;2329.60;;;;;;4980568;28;19945;-88
2024/02/05 09:54:14;;;;;;;;;;;358.70;2278.40;;;;;;4979800;28;20362;-85
2024/02/05 09:56:39;;;;;;;;;;;358.70;2329.60;;;;;;4981782;28;19914;-81
2024/02/05 09:59:05;;;;;;;;;;;358.70;2329.60;;;;;;4979984;28;20005;-84
2024/02/05 10:01:32;;;;;;;;;;;358.80;2329.60;;;;;;4997665;28;19913;-84
2024/02/05 10:03:58;;;;;;;;;;;358.80;2329.60;;;;;;4997262;28;19921;-84
2024/02/05 10:06:26;;;;;;;;;;;358.80;2329.60;;;;;;4979531;28;19917;-86
2024/02/05 10:08:54;;;;;;;;;;;358.80;2329.60;;;;;;4980382;28;19910;-84
2024/02/05 10:11:21;;;;;;;;;;;358.90;2329.60;;;;;;4991557;28;19921;-82
2024/02/05 10:13:47;;;;;;;;;;;358.90;2329.60;;;;;;4982253;28;19965;-79
2024/02/05 10:16:12;;;;;;;;;;;358.90;2329.60;;;;;;4998856;28;19956;-84
2024/02/05 10:18:38;;;;;;;;;;;358.90;2329.60;;;;;;4979986;28;19956;-82
2024/02/05 10:21:05;;;;;;;;;;;359.00;2329.60;;;;;;4979831;28;20460;-82
2024/02/05 10:23:30;;;;;;;;;;;359.00;2329.60;;;;;;4996686;28;19955;-86
2024/02/05 10:25:56;;;;;;;;;;;359.00;2329.60;;;;;;4996863;28;19996;-82
2024/02/05 10:28:22;;;;;;;;;;;359.00;2329.60;;;;;;4991936;28;20357;-85
2024/02/05 10:30:47;;;;;;;;;;;359.10;2329.60;;;;;;4996972;28;20268;-84
2024/02/05 10:33:15;;;;;;;;;;;359.20;2329.60;;;;;;4979277;28;19917;-82
2024/02/05 10:35:41;;;;;;;;;;;359.20;2329.60;;;;;;4991473;28;19917;-83
2024/02/05 10:38:08;;;;;;;;;;;359.20;2304.00;;;;;;4987306;28;19949;-83
2024/02/05 10:40:35;;;;;;;;;;;359.30;2329.60;;;;;;4983083;28;19916;-84
2024/02/05 10:43:01;;;;;;;;;;;384.00;2329.60;;;;;;4989351;28;19916;-82
2024/02/05 10:45:39;;;;;;;;;;;384.00;2304.00;;;;;;4979063;28;20040;-83
2024/02/05 10:48:05;;;;;;;;;;;384.00;2176.00;;;;;;4990712;28;19916;-84
2024/02/05 10:50:31;;;;;;;;;;;384.10;2150.40;;;;;;5001114;28;19917;-81
2024/02/05 10:52:57;;;;;;;;;;;384.00;2073.60;;;;;;4998824;28;19913;-83
2024/02/05 10:55:23;;;;;;;;;;;384.00;2073.60;;;;;;4995684;28;19964;-86
2024/02/05 10:57:50;;;;;;;;;;;384.00;2099.20;;;;;;4986329;28;19905;-84
2024/02/05 11:00:18;;;;;;;;;;;384.00;2124.80;;;;;;4980768;28;20376;-83
2024/02/05 11:02:49;;;;;;;;;;;384.00;2176.00;;;;;;4996786;28;19969;-82
2024/02/05 11:05:15;;;;;;;;;;;384.00;2150.40;;;;;;4979578;28;19914;-82
2024/02/05 11:07:48;;;;;;;;;;;384.10;2176.00;;;;;;4995529;28;19944;-83
2024/02/05 11:10:16;;;;;;;;;;;384.00;2201.60;;;;;;4978913;28;19913;-83
2024/02/05 11:12:42;;;;;;;;;;;359.10;2201.60;;;;;;4989114;28;20417;-84
2024/02/05 11:15:09;;;;;;;;;;;384.00;2201.60;;;;;;4996115;28;19913;-84
2024/02/05 11:17:36;;;;;;;;;;;384.10;2201.60;;;;;;4995503;28;19914;-85
2024/02/05 11:20:08;;;;;;;;;;;384.10;2176.00;;;;;;4995600;28;19969;-87
2024/02/05 11:22:35;;;;;;;;;;;384.10;2201.60;;;;;;4986333;28;20008;-81
2024/02/05 11:25:02;;;;;;;;;;;384.10;2201.60;;;;;;4994627;28;19914;-85
2024/02/05 11:27:28;;;;;;;;;;;384.10;2201.60;;;;;;4978158;28;19956;-83
2024/02/05 11:29:54;;;;;;;;;;;384.20;2227.20;;;;;;4995593;28;20352;-84
2024/02/05 11:32:32;;;;;;;;;;;384.20;2227.20;;;;;;4994274;28;19909;-83
2024/02/05 11:34:58;;;;;;;;;;;384.10;2201.60;;;;;;4971471;28;20285;-79
2024/02/05 11:37:24;;;;;;;;;;;384.10;2227.20;;;;;;4996817;28;19964;-79
2024/02/05 11:39:52;;;;;;;;;;;384.20;2176.00;;;;;;4998095;28;20352;-79
2024/02/05 11:42:18;;;;;;;;;;;384.20;2201.60;;;;;;4977774;28;20395;-80
2024/02/05 11:44:46;;;;;;;;;;;384.30;2176.00;;;;;;4979688;28;19910;-79
2024/02/05 11:47:12;;;;;;;;;;;384.30;2176.00;;;;;;4998571;28;19948;-81
2024/02/05 11:49:37;;;;;;;;;;;384.30;2176.00;;;;;;4998057;28;19910;-82
2024/02/05 11:52:03;;;;;;;;;;;384.30;2150.40;;;;;;4979667;28;19985;-81
2024/02/05 11:54:30;;;;;;;;;;;384.40;2150.40;;;;;;4977630;28;19972;-81
2024/02/05 11:56:55;;;;;;;;;;;384.40;2176.00;;;;;;4994165;28;19905;-81
2024/02/05 11:59:21;;;;;;;;;;;384.40;2201.60;;;;;;4977892;28;19909;-82
2024/02/05 12:01:47;;;;;;;;;;;384.50;2176.00;;;;;;4991102;28;20432;-85
2024/02/05 12:04:13;;;;;;;;;;;384.50;2176.00;;;;;;4995035;28;19917;-84
2024/02/05 12:06:39;;;;;;;;;;;384.50;2124.80;;;;;;4988350;28;20272;-80
2024/02/05 12:09:07;;;;;;;;;;;384.50;2099.20;;;;;;4978509;28;20001;-83
2024/02/05 12:11:36;;;;;;;;;;;384.60;2124.80;;;;;;4977280;28;19941;-82
2024/02/05 12:14:02;;;;;;;;;;;384.60;2124.80;;;;;;4976936;28;19926;-82
2024/02/05 12:16:30;;;;;;;;;;;384.70;2099.20;;;;;;5000534;28;20352;-83
2024/02/05 12:18:55;;;;;;;;;;;384.70;2124.80;;;;;;4977283;28;19948;-80
2024/02/05 12:21:21;;;;;;;;;;;384.70;2073.60;;;;;;4982097;28;19953;-81
2024/02/05 12:23:47;;;;;;;;;;;409.60;2099.20;;;;;;4994380;28;19910;-80
2024/02/05 12:26:13;;;;;;;;;;;384.70;2099.20;;;;;;4984209;28;19917;-82
2024/02/05 12:28:42;;;;;;;;;;;384.80;2099.20;;;;;;4990366;28;19906;-81
2024/02/05 12:31:07;;;;;;;;;;;384.80;2099.20;;;;;;4977502;28;19914;-82
2024/02/05 12:33:33;;;;;;;;;;;384.70;2099.20;;;;;;4971938;28;19920;-81
2024/02/05 12:36:01;;;;;;;;;;;384.70;2124.80;;;;;;4976721;28;19921;-80
2024/02/05 12:38:27;;;;;;;;;;;384.80;2150.40;;;;;;4994054;28;19914;-78
2024/02/05 12:40:52;;;;;;;;;;;384.90;2150.40;;;;;;4977146;28;19905;-82
2024/02/05 12:43:20;;;;;;;;;;;384.90;2124.80;;;;;;4977324;28;20378;-81
2024/02/05 12:45:46;;;;;;;;;;;384.90;2124.80;;;;;;4976652;28;19910;-80
2024/02/05 12:48:12;;;;;;;;;;;409.60;2150.40;;;;;;4976216;28;20394;-80
2024/02/05 12:50:39;;;;;;;;;;;409.60;2176.00;;;;;;4976333;28;20360;-82
2024/02/05 12:53:04;;;;;;;;;;;409.60;2201.60;;;;;;4993681;28;19918;-80
2024/02/05 12:55:31;;;;;;;;;;;409.60;2201.60;;;;;;5001463;28;19914;-79
2024/02/05 12:57:56;;;;;;;;;;;409.60;2252.80;;;;;;4995290;28;20036;-80
2024/02/05 13:00:22;;;;;;;;;;;409.60;2278.40;;;;;;4992002;28;19996;-78
2024/02/05 13:02:48;;;;;;;;;;;384.90;2227.20;;;;;;4986580;28;19914;-78
2024/02/05 13:05:13;;;;;;;;;;;384.90;2278.40;;;;;;4992915;28;19914;-79
2024/02/05 13:07:39;;;;;;;;;;;384.90;2329.60;;;;;;4994069;28;19917;-80
2024/02/05 13:10:08;;;;;;;;;;;384.90;2329.60;;;;;;4984550;28;19909;-80
2024/02/05 13:12:34;;;;;;;;;;;384.90;2329.60;;;;;;4990711;28;19957;-80
2024/02/05 13:14:59;;;;;;;;;;;384.90;2329.60;;;;;;4994477;28;19961;-80
2024/02/05 13:17:25;;;;;;;;;;;384.90;2329.60;;;;;;4997376;28;19909;-80
2024/02/05 13:19:50;;;;;;;;;;;384.90;2329.60;;;;;;4988925;28;19906;-76
2024/02/05 13:22:16;;;;;;;;;;;409.60;2355.20;;;;;;4991609;28;19918;-75
2024/02/05 13:24:42;;;;;;;;;;;409.70;2355.20;;;;;;4992962;28;19993;-77
2024/02/05 13:27:07;;;;;;;;;;;409.70;2355.20;;;;;;4997087;28;19906;-79
2024/02/05 13:29:33;;;;;;;;;;;409.70;2329.60;;;;;;4993226;28;19921;-76
2024/02/05 13:31:58;;;;;;;;;;;409.70;2329.60;;;;;;4992555;28;19917;-81
2024/02/05 13:34:26;;;;;;;;;;;409.90;2329.60;;;;;;4994655;28;19965;-79
2024/02/05 13:36:52;;;;;;;;;;;410.00;2278.40;;;;;;4993787;28;19910;-81
2024/02/05 13:39:18;;;;;;;;;;;410.10;2304.00;;;;;;4977979;28;19909;-79